Terminal Aerodrome Forecast
Issued by NWS

Home | Current Version | Previous Version | Text Only | Print | Product List | Glossary Off
Versions: 1 2 3 4 5 6 7 8 9 10 11 12

000
FTUS45 KGGW 231100
TAFSDY
TAF
KSDY 231120Z 2312/2412 VRB05KT P6SM SCT200
     FM231500 09009KT P6SM BKN170
     FM231800 10013KT P6SM BKN100
     FM240300 11008KT P6SM BKN029
     FM240600 VRB04KT P6SM BKN035
      AMD LTD TO CLD VIS AND WIND=

USA.gov is the U.S. government's official web portal to all federal, state and local government web resources and services.